Time;durP1;ratioP1;P1;durP2;ratioP2;P2;SDS_P1;SDS_P2;PMS_P1;PMS_P2;Temp;Humidity;BMP_temperature;BMP_pressure;BME280_temperature;BME280_humidity;BME280_pressure;Samples;Min_cycle;Max_cycle;Signal;HPM_P1;HPM_P2
2022/04/10 00:01:50;;;;;;;15.68;2.80;;;;;;;;;;5040935;28;20430;-37
2022/04/10 00:04:18;;;;;;;25.38;2.67;;;;;;;;;;5032140;28;20410;-37
2022/04/10 00:06:44;;;;;;;16.05;2.55;;;;;;;;;;5039603;28;20041;-37
2022/04/10 00:09:13;;;;;;;14.88;2.70;;;;;;;;;;5038289;28;20498;-38
2022/04/10 00:11:40;;;;;;;27.70;2.97;;;;;;;;;;5039925;28;20059;-37
2022/04/10 00:14:07;;;;;;;25.98;2.58;;;;;;;;;;5039018;28;20068;-35
2022/04/10 00:16:34;;;;;;;24.45;3.10;;;;;;;;;;5038476;28;20387;-35
2022/04/10 00:19:04;;;;;;;22.52;2.50;;;;;;;;;;5030251;28;20044;-35
2022/04/10 00:21:34;;;;;;;16.65;2.90;;;;;;;;;;5030432;28;20044;-36
2022/04/10 00:24:01;;;;;;;14.63;2.50;;;;;;;;;;5030234;28;20033;-37
2022/04/10 00:26:28;;;;;;;13.48;2.75;;;;;;;;;;5042607;28;20055;-37
2022/04/10 00:28:57;;;;;;;15.77;3.28;;;;;;;;;;5050618;28;20460;-36
2022/04/10 00:31:23;;;;;;;15.85;2.72;;;;;;;;;;5050207;28;20036;-36
2022/04/10 00:33:50;;;;;;;13.70;2.70;;;;;;;;;;5049861;28;20037;-37
2022/04/10 00:36:17;;;;;;;25.95;3.20;;;;;;;;;;5049824;28;20028;-36
2022/04/10 00:38:44;;;;;;;16.30;2.72;;;;;;;;;;5038935;28;20082;-36
2022/04/10 00:41:11;;;;;;;18.65;3.38;;;;;;;;;;5036398;28;20025;-36
2022/04/10 00:43:39;;;;;;;16.02;3.33;;;;;;;;;;5034462;28;20029;-37
2022/04/10 00:46:07;;;;;;;18.23;4.03;;;;;;;;;;5029969;28;20475;-37
2022/04/10 00:48:33;;;;;;;16.17;4.85;;;;;;;;;;5029815;28;20099;-37
2022/04/10 00:53:46;;;;;;;46.90;15.60;;;;;;;;;;5030535;28;20040;-37
2022/04/10 00:56:13;;;;;;;50.17;20.10;;;;;;;;;;5033185;28;20052;-37
2022/04/10 00:58:40;;;;;;;52.83;22.30;;;;;;;;;;5030499;28;20104;-37
2022/04/10 01:01:08;;;;;;;49.17;21.83;;;;;;;;;;5030306;28;20075;-37
2022/04/10 01:03:35;;;;;;;29.30;12.52;;;;;;;;;;5029698;28;20057;-37
2022/04/10 01:06:02;;;;;;;31.17;10.57;;;;;;;;;;5030256;28;20165;-37
2022/04/10 01:08:29;;;;;;;21.42;8.55;;;;;;;;;;5030227;28;20566;-37
2022/04/10 01:10:56;;;;;;;17.95;6.63;;;;;;;;;;5031047;28;20033;-37
2022/04/10 01:13:24;;;;;;;21.13;5.38;;;;;;;;;;5046164;28;20021;-37
2022/04/10 01:15:51;;;;;;;19.25;4.35;;;;;;;;;;5048875;28;20667;-37
2022/04/10 01:18:18;;;;;;;16.90;4.78;;;;;;;;;;5050145;28;20033;-37
2022/04/10 01:20:45;;;;;;;22.30;3.85;;;;;;;;;;5049738;28;20033;-37
2022/04/10 01:23:12;;;;;;;19.95;3.97;;;;;;;;;;5047140;28;20030;-38
2022/04/10 01:25:39;;;;;;;22.70;4.28;;;;;;;;;;5039353;28;20028;-37
2022/04/10 01:28:13;;;;;;;24.02;3.60;;;;;;;;;;5046459;28;20076;-37
2022/04/10 01:30:40;;;;;;;41.47;4.13;;;;;;;;;;5038274;28;20022;-37
2022/04/10 01:33:07;;;;;;;13.63;3.25;;;;;;;;;;5029396;28;20037;-38
2022/04/10 01:35:35;;;;;;;19.27;3.70;;;;;;;;;;5029800;28;20117;-37
2022/04/10 01:38:03;;;;;;;17.38;3.58;;;;;;;;;;5030495;28;20104;-37
2022/04/10 01:40:29;;;;;;;18.15;3.53;;;;;;;;;;5030208;28;20022;-37
2022/04/10 01:42:56;;;;;;;20.83;4.35;;;;;;;;;;5045611;28;20124;-38
2022/04/10 01:45:24;;;;;;;12.35;3.60;;;;;;;;;;5050038;28;20033;-38
2022/04/10 01:47:54;;;;;;;13.60;3.80;;;;;;;;;;5050123;28;20025;-37
2022/04/10 01:50:22;;;;;;;19.00;6.82;;;;;;;;;;5049479;28;20056;-37
2022/04/10 01:52:49;;;;;;;21.30;5.82;;;;;;;;;;5046797;28;20037;-37
2022/04/10 01:55:16;;;;;;;17.08;4.18;;;;;;;;;;5036955;28;20168;-38
2022/04/10 01:57:43;;;;;;;34.47;3.92;;;;;;;;;;5039358;28;20450;-38
2022/04/10 02:00:10;;;;;;;563.10;26.50;;;;;;;;;;5039282;28;20026;-37
2022/04/10 02:02:37;;;;;;;340.50;21.23;;;;;;;;;;5032255;28;20043;-38
2022/04/10 02:05:04;;;;;;;383.42;26.38;;;;;;;;;;5039194;28;20099;-37
2022/04/10 02:07:31;;;;;;;269.40;18.23;;;;;;;;;;5038108;28;20037;-37
2022/04/10 02:09:58;;;;;;;182.35;12.82;;;;;;;;;;5040226;28;20053;-37
2022/04/10 02:12:25;;;;;;;104.63;9.10;;;;;;;;;;5035821;28;20059;-37
2022/04/10 02:14:52;;;;;;;93.15;8.77;;;;;;;;;;5042410;28;20036;-37
2022/04/10 02:17:19;;;;;;;73.40;8.15;;;;;;;;;;5041835;28;20057;-37
2022/04/10 02:19:47;;;;;;;89.07;8.88;;;;;;;;;;5036716;28;20445;-37
2022/04/10 02:22:14;;;;;;;80.75;8.63;;;;;;;;;;5043911;28;20079;-37
2022/04/10 02:24:41;;;;;;;95.50;8.82;;;;;;;;;;5041599;28;20037;-37
2022/04/10 02:27:08;;;;;;;81.07;7.68;;;;;;;;;;5040679;28;20526;-38
2022/04/10 02:29:35;;;;;;;72.90;7.72;;;;;;;;;;5044199;28;20430;-37
2022/04/10 02:32:02;;;;;;;89.45;9.00;;;;;;;;;;5039893;28;20025;-37
2022/04/10 02:34:29;;;;;;;86.78;8.65;;;;;;;;;;5042242;28;20106;-37
2022/04/10 02:36:56;;;;;;;88.97;8.07;;;;;;;;;;5039574;28;20030;-37
2022/04/10 02:39:23;;;;;;;75.43;7.88;;;;;;;;;;5039172;28;20607;-37
2022/04/10 02:41:50;;;;;;;76.05;8.63;;;;;;;;;;5044067;28;20038;-37
2022/04/10 02:44:17;;;;;;;76.65;8.45;;;;;;;;;;5045370;28;20122;-37
2022/04/10 02:46:44;;;;;;;71.85;8.50;;;;;;;;;;5044316;28;20495;-37
2022/04/10 02:49:10;;;;;;;54.78;7.55;;;;;;;;;;5037654;28;20040;-37
2022/04/10 02:51:37;;;;;;;65.40;8.57;;;;;;;;;;5042003;28;20039;-37
2022/04/10 02:54:04;;;;;;;60.75;7.45;;;;;;;;;;5049781;28;20033;-37
2022/04/10 02:56:31;;;;;;;56.03;7.32;;;;;;;;;;5031563;28;20025;-37
2022/04/10 02:58:58;;;;;;;68.95;7.15;;;;;;;;;;5032931;28;20383;-37
2022/04/10 03:01:25;;;;;;;60.55;7.65;;;;;;;;;;5030549;28;20444;-37
2022/04/10 03:03:53;;;;;;;54.58;6.35;;;;;;;;;;5033290;28;20048;-37
2022/04/10 03:06:20;;;;;;;54.30;7.43;;;;;;;;;;5033006;28;20037;-37
2022/04/10 03:08:47;;;;;;;60.58;7.13;;;;;;;;;;5033114;28;20501;-37
2022/04/10 03:11:14;;;;;;;55.20;6.93;;;;;;;;;;5032896;28;20037;-37
2022/04/10 03:13:41;;;;;;;49.33;7.18;;;;;;;;;;5033380;28;20502;-37
2022/04/10 03:16:08;;;;;;;40.08;5.97;;;;;;;;;;5032785;28;20037;-37
2022/04/10 03:18:35;;;;;;;61.28;6.53;;;;;;;;;;5032678;28;20148;-37
2022/04/10 03:21:02;;;;;;;50.45;6.88;;;;;;;;;;5032722;28;20486;-37
2022/04/10 03:23:29;;;;;;;50.33;7.15;;;;;;;;;;5033129;28;20033;-38
2022/04/10 03:25:56;;;;;;;47.28;6.20;;;;;;;;;;5032565;28;20590;-37
2022/04/10 03:28:23;;;;;;;37.47;5.47;;;;;;;;;;5033283;28;20026;-37
2022/04/10 03:30:50;;;;;;;40.72;6.30;;;;;;;;;;5032713;28;20439;-37
2022/04/10 03:33:17;;;;;;;37.25;5.63;;;;;;;;;;5032402;28;20033;-37
2022/04/10 03:35:44;;;;;;;39.67;6.30;;;;;;;;;;5033276;28;20037;-37
2022/04/10 03:38:11;;;;;;;51.33;6.68;;;;;;;;;;5032629;28;20041;-37
2022/04/10 03:40:38;;;;;;;39.72;5.35;;;;;;;;;;5033298;28;20487;-37
2022/04/10 03:43:05;;;;;;;39.05;6.10;;;;;;;;;;5032431;28;20036;-37
2022/04/10 03:45:32;;;;;;;34.10;6.47;;;;;;;;;;5033313;28;20436;-37
2022/04/10 03:47:59;;;;;;;40.95;6.35;;;;;;;;;;5033031;28;20490;-37
2022/04/10 03:50:26;;;;;;;34.15;6.15;;;;;;;;;;5032438;28;20029;-37
2022/04/10 03:52:53;;;;;;;34.22;6.05;;;;;;;;;;5032455;28;20056;-37
2022/04/10 03:55:20;;;;;;;32.42;5.25;;;;;;;;;;5032584;28;20120;-37
2022/04/10 03:57:47;;;;;;;34.63;5.03;;;;;;;;;;5032682;28;20491;-37
2022/04/10 04:00:14;;;;;;;23.58;4.68;;;;;;;;;;5032982;28;20032;-37
2022/04/10 04:02:44;;;;;;;31.67;5.05;;;;;;;;;;5031871;28;20021;-37
2022/04/10 04:05:11;;;;;;;34.35;5.65;;;;;;;;;;5032936;28;20652;-37
2022/04/10 04:07:38;;;;;;;31.85;4.65;;;;;;;;;;5032297;28;20056;-36
2022/04/10 04:10:06;;;;;;;29.98;4.65;;;;;;;;;;5032438;28;20029;-37
2022/04/10 04:12:33;;;;;;;38.17;5.10;;;;;;;;;;5032049;28;20036;-37
2022/04/10 04:14:59;;;;;;;24.50;4.45;;;;;;;;;;5032406;28;20061;-37
2022/04/10 04:17:26;;;;;;;25.00;4.93;;;;;;;;;;5032031;28;20033;-37
2022/04/10 04:19:53;;;;;;;23.05;4.18;;;;;;;;;;5032707;28;20038;-37
2022/04/10 04:22:21;;;;;;;27.33;5.05;;;;;;;;;;5031253;28;20029;-37
2022/04/10 04:24:48;;;;;;;26.95;4.15;;;;;;;;;;5032280;28;20113;-37
2022/04/10 04:27:15;;;;;;;27.48;4.03;;;;;;;;;;5031846;28;20155;-37
2022/04/10 04:29:42;;;;;;;24.77;4.57;;;;;;;;;;5032496;28;20035;-37
2022/04/10 04:32:09;;;;;;;28.02;4.30;;;;;;;;;;5032030;28;20057;-43
2022/04/10 04:34:36;;;;;;;30.98;4.22;;;;;;;;;;5031228;28;20036;-43
2022/04/10 04:37:03;;;;;;;27.52;4.47;;;;;;;;;;5030662;28;20506;-44
2022/04/10 04:39:30;;;;;;;30.50;4.55;;;;;;;;;;5031366;28;20029;-43
2022/04/10 04:41:56;;;;;;;22.30;4.75;;;;;;;;;;5031664;28;20046;-43
2022/04/10 04:44:23;;;;;;;21.15;3.38;;;;;;;;;;5031509;28;20025;-44
2022/04/10 04:46:50;;;;;;;23.23;4.57;;;;;;;;;;5031032;28;20109;-43
2022/04/10 04:49:17;;;;;;;19.77;4.43;;;;;;;;;;5031352;28;20083;-43
2022/04/10 04:51:44;;;;;;;17.98;4.90;;;;;;;;;;5031734;28;20100;-44
2022/04/10 04:54:11;;;;;;;17.58;3.88;;;;;;;;;;5031256;28;20438;-43
2022/04/10 04:56:38;;;;;;;20.65;4.00;;;;;;;;;;5031576;28;20391;-43
2022/04/10 04:59:05;;;;;;;19.63;4.25;;;;;;;;;;5031157;28;20032;-43
2022/04/10 05:01:32;;;;;;;22.13;4.63;;;;;;;;;;5031334;28;20084;-43
2022/04/10 05:03:59;;;;;;;18.83;4.05;;;;;;;;;;5031297;28;20898;-43
2022/04/10 05:06:26;;;;;;;17.58;3.13;;;;;;;;;;5031615;28;20036;-44
2022/04/10 05:08:53;;;;;;;22.90;3.95;;;;;;;;;;5031305;28;20036;-43
2022/04/10 05:11:20;;;;;;;15.88;3.28;;;;;;;;;;5031276;28;20120;-43
2022/04/10 05:13:47;;;;;;;19.17;3.97;;;;;;;;;;5031217;28;20059;-43
2022/04/10 05:16:14;;;;;;;13.30;3.38;;;;;;;;;;5031455;28;20403;-43
2022/04/10 05:18:41;;;;;;;17.05;3.05;;;;;;;;;;5031262;28;20041;-43
2022/04/10 05:21:08;;;;;;;18.50;3.58;;;;;;;;;;5031331;28;20068;-44
2022/04/10 05:23:35;;;;;;;16.15;3.95;;;;;;;;;;5034241;28;20068;-42
2022/04/10 05:26:02;;;;;;;16.38;3.30;;;;;;;;;;5045466;28;20486;-43
2022/04/10 05:28:31;;;;;;;17.30;3.47;;;;;;;;;;5050474;28;20048;-43
2022/04/10 05:30:58;;;;;;;16.52;3.80;;;;;;;;;;5051380;28;20530;-43
2022/04/10 05:33:25;;;;;;;13.07;3.50;;;;;;;;;;5050989;28;20414;-43
2022/04/10 05:35:55;;;;;;;8.55;2.95;;;;;;;;;;5051417;28;20044;-43
2022/04/10 05:38:22;;;;;;;12.25;2.97;;;;;;;;;;5051300;28;20028;-43
2022/04/10 05:40:53;;;;;;;14.25;3.22;;;;;;;;;;5050475;28;20040;-44
2022/04/10 05:43:23;;;;;;;12.88;3.20;;;;;;;;;;5051487;28;20033;-43
2022/04/10 05:45:51;;;;;;;9.40;3.15;;;;;;;;;;5050537;28;20064;-43
2022/04/10 05:48:18;;;;;;;17.50;4.00;;;;;;;;;;5051460;28;20490;-43
2022/04/10 05:50:45;;;;;;;12.35;2.90;;;;;;;;;;5054948;28;20475;-44
2022/04/10 05:53:12;;;;;;;18.88;3.92;;;;;;;;;;5054598;28;20083;-43
2022/04/10 05:55:39;;;;;;;13.32;3.30;;;;;;;;;;5054179;28;20132;-44
2022/04/10 05:58:06;;;;;;;12.35;3.58;;;;;;;;;;5055129;28;20525;-43
2022/04/10 06:00:33;;;;;;;12.05;3.20;;;;;;;;;;5054681;28;20491;-43
2022/04/10 06:03:03;;;;;;;9.55;3.00;;;;;;;;;;5054797;28;20495;-43
2022/04/10 06:05:30;;;;;;;8.63;2.58;;;;;;;;;;5054410;28;20063;-44
2022/04/10 06:07:58;;;;;;;11.10;3.20;;;;;;;;;;5055045;28;20033;-43
2022/04/10 06:10:25;;;;;;;13.75;3.20;;;;;;;;;;5054190;28;20364;-43
2022/04/10 06:12:51;;;;;;;9.13;2.78;;;;;;;;;;5054809;28;20024;-44
2022/04/10 06:15:22;;;;;;;13.27;2.60;;;;;;;;;;5054573;28;20112;-43
2022/04/10 06:17:49;;;;;;;8.43;2.95;;;;;;;;;;5053977;28;20078;-43
2022/04/10 06:20:16;;;;;;;9.77;2.97;;;;;;;;;;5054696;28;20055;-43
2022/04/10 06:22:43;;;;;;;10.32;2.70;;;;;;;;;;5053846;28;20124;-43
2022/04/10 06:25:10;;;;;;;12.55;3.13;;;;;;;;;;5053824;28;20116;-43
2022/04/10 06:27:37;;;;;;;11.95;2.95;;;;;;;;;;5052691;28;20052;-43
2022/04/10 06:30:04;;;;;;;11.52;2.95;;;;;;;;;;5053692;28;20364;-43
2022/04/10 06:32:31;;;;;;;6.63;2.63;;;;;;;;;;5054097;28;20423;-44
2022/04/10 06:34:58;;;;;;;7.75;2.75;;;;;;;;;;5053848;28;20071;-43
2022/04/10 06:37:25;;;;;;;8.77;2.78;;;;;;;;;;5054151;28;20055;-43
2022/04/10 06:39:52;;;;;;;9.50;2.58;;;;;;;;;;5053436;28;20108;-44
2022/04/10 06:42:19;;;;;;;9.20;2.65;;;;;;;;;;5054418;28;20033;-43
2022/04/10 06:44:46;;;;;;;10.10;2.50;;;;;;;;;;5053747;28;20056;-43
2022/04/10 06:47:13;;;;;;;7.97;2.63;;;;;;;;;;5053942;28;20531;-44
2022/04/10 06:49:40;;;;;;;9.90;2.53;;;;;;;;;;5054241;28;20053;-43
2022/04/10 06:52:07;;;;;;;7.35;2.72;;;;;;;;;;5053185;28;20029;-43
2022/04/10 06:54:34;;;;;;;13.63;2.70;;;;;;;;;;5054125;28;20673;-43
2022/04/10 06:57:01;;;;;;;9.05;2.63;;;;;;;;;;5053547;28;20059;-43
2022/04/10 06:59:28;;;;;;;8.38;2.70;;;;;;;;;;5053659;28;20040;-43
2022/04/10 07:01:55;;;;;;;8.38;2.58;;;;;;;;;;5051777;28;20533;-43
2022/04/10 07:04:22;;;;;;;8.45;2.20;;;;;;;;;;5053121;28;20060;-43
2022/04/10 07:06:50;;;;;;;8.88;2.90;;;;;;;;;;5053730;28;20029;-43
2022/04/10 07:09:18;;;;;;;9.05;2.10;;;;;;;;;;5053727;28;20068;-44
2022/04/10 07:11:46;;;;;;;8.85;2.50;;;;;;;;;;5052166;28;20415;-43
2022/04/10 07:14:13;;;;;;;6.47;2.05;;;;;;;;;;5053305;28;20095;-43
2022/04/10 07:16:40;;;;;;;7.05;2.33;;;;;;;;;;5053450;28;20041;-44
2022/04/10 07:19:08;;;;;;;6.60;2.30;;;;;;;;;;5051608;28;20467;-44
2022/04/10 07:24:20;;;;;;;6.30;2.42;;;;;;;;;;5053555;28;20039;-44
2022/04/10 07:26:49;;;;;;;8.02;2.38;;;;;;;;;;5053283;28;20797;-43
2022/04/10 07:29:16;;;;;;;6.80;2.63;;;;;;;;;;5052947;28;20112;-44
2022/04/10 07:31:43;;;;;;;5.72;2.45;;;;;;;;;;5053090;28;20025;-44
2022/04/10 07:34:10;;;;;;;7.68;2.00;;;;;;;;;;5053391;28;20021;-44
2022/04/10 07:36:38;;;;;;;6.68;2.28;;;;;;;;;;5053078;28;20033;-43
2022/04/10 07:39:05;;;;;;;6.00;2.30;;;;;;;;;;5052859;28;20029;-43
2022/04/10 07:41:32;;;;;;;9.35;2.28;;;;;;;;;;5052823;28;20058;-43
2022/04/10 07:47:39;;;;;;;5.57;2.40;;;;;;;;;;5054822;28;20031;-44
2022/04/10 07:53:23;;;;;;;8.77;2.67;;;;;;;;;;5054741;28;20581;-43
2022/04/10 07:55:50;;;;;;;6.13;2.35;;;;;;;;;;5051915;28;20625;-43
2022/04/10 07:58:17;;;;;;;8.25;2.30;;;;;;;;;;5053259;28;20059;-43
2022/04/10 08:00:44;;;;;;;8.27;2.17;;;;;;;;;;5052689;28;20037;-44
2022/04/10 08:03:11;;;;;;;6.72;2.42;;;;;;;;;;5052407;28;20037;-44
2022/04/10 08:05:39;;;;;;;7.13;2.30;;;;;;;;;;5053211;28;20021;-43
2022/04/10 08:08:06;;;;;;;7.18;2.58;;;;;;;;;;5046528;28;20094;-43
2022/04/10 08:10:32;;;;;;;7.28;1.98;;;;;;;;;;5053081;28;20028;-44
2022/04/10 08:12:59;;;;;;;10.05;2.05;;;;;;;;;;5052411;28;20518;-43
2022/04/10 08:15:26;;;;;;;6.50;2.08;;;;;;;;;;5052306;28;20032;-43
2022/04/10 08:17:55;;;;;;;6.05;2.10;;;;;;;;;;5052911;28;20052;-43
2022/04/10 08:20:22;;;;;;;6.38;2.45;;;;;;;;;;5051602;28;20410;-43
2022/04/10 08:22:50;;;;;;;10.20;2.83;;;;;;;;;;5052776;28;20028;-44
2022/04/10 08:25:17;;;;;;;8.55;2.45;;;;;;;;;;5052241;28;20578;-43
2022/04/10 08:27:44;;;;;;;6.05;2.38;;;;;;;;;;5052273;28;20021;-44
2022/04/10 20:29:59;;;;;;;14.88;4.38;;;;;;;;;;4982716;28;20069;-33
2022/04/10 20:32:29;;;;;;;14.23;4.43;;;;;;;;;;4990540;28;20084;-36
2022/04/10 20:34:56;;;;;;;11.30;4.20;;;;;;;;;;4991338;28;20049;-35
2022/04/10 20:37:23;;;;;;;15.25;4.43;;;;;;;;;;4991214;28;20088;-34
2022/04/10 20:39:50;;;;;;;18.38;5.70;;;;;;;;;;4990715;28;20553;-32
2022/04/10 20:42:18;;;;;;;12.32;5.57;;;;;;;;;;4991587;28;20038;-35
2022/04/10 20:44:45;;;;;;;16.23;5.20;;;;;;;;;;4974036;28;20043;-34
2022/04/10 20:47:12;;;;;;;14.80;4.88;;;;;;;;;;4972439;28;20038;-35
2022/04/10 20:49:39;;;;;;;11.13;4.82;;;;;;;;;;4972212;28;20041;-35
2022/04/10 20:52:11;;;;;;;13.32;5.25;;;;;;;;;;4972832;28;20051;-35
2022/04/10 20:54:38;;;;;;;11.75;5.10;;;;;;;;;;4984461;28;20077;-35
2022/04/10 20:57:05;;;;;;;14.55;5.03;;;;;;;;;;4991743;28;20037;-37
2022/04/10 20:59:32;;;;;;;16.15;4.68;;;;;;;;;;4990919;28;20026;-36
2022/04/10 21:01:59;;;;;;;11.70;4.53;;;;;;;;;;4989876;28;20030;-36
2022/04/10 21:04:26;;;;;;;16.40;4.78;;;;;;;;;;4989759;28;20049;-37
2022/04/10 21:06:53;;;;;;;12.98;4.65;;;;;;;;;;4987652;28;20065;-36
2022/04/10 21:09:20;;;;;;;10.60;4.53;;;;;;;;;;4989204;28;20412;-35
2022/04/10 21:11:47;;;;;;;12.82;4.22;;;;;;;;;;4990717;28;20109;-37
2022/04/10 21:14:15;;;;;;;14.45;4.40;;;;;;;;;;4989715;28;20026;-35
2022/04/10 21:16:42;;;;;;;7.85;3.78;;;;;;;;;;4989310;28;20022;-37
2022/04/10 21:19:09;;;;;;;6.20;3.10;;;;;;;;;;4988806;28;20026;-36
2022/04/10 21:21:35;;;;;;;8.32;3.53;;;;;;;;;;4990073;28;20034;-35
2022/04/10 21:24:03;;;;;;;8.95;3.97;;;;;;;;;;4990458;28;20031;-36
2022/04/10 21:26:30;;;;;;;9.15;3.50;;;;;;;;;;4973547;28;20030;-37
2022/04/10 21:28:57;;;;;;;6.80;3.25;;;;;;;;;;4990786;28;20050;-36
2022/04/10 21:31:24;;;;;;;7.85;3.25;;;;;;;;;;4991228;28;20038;-35
2022/04/10 21:33:51;;;;;;;7.05;3.40;;;;;;;;;;4991877;28;20134;-35
2022/04/10 21:36:18;;;;;;;5.50;2.97;;;;;;;;;;4990970;28;20033;-35
2022/04/10 21:38:45;;;;;;;6.93;3.40;;;;;;;;;;4990819;28;20108;-35
2022/04/10 21:41:12;;;;;;;6.40;3.40;;;;;;;;;;4991776;28;20026;-35
2022/04/10 21:43:40;;;;;;;5.65;3.40;;;;;;;;;;4973525;28;20030;-35
2022/04/10 21:46:08;;;;;;;8.95;2.97;;;;;;;;;;4990995;28;20035;-36
2022/04/10 21:48:35;;;;;;;10.25;2.58;;;;;;;;;;4991148;28;20018;-36
2022/04/10 21:51:02;;;;;;;14.07;4.22;;;;;;;;;;4991408;28;20038;-36
2022/04/10 21:53:32;;;;;;;12.63;5.80;;;;;;;;;;4991828;28;20096;-36
2022/04/10 21:55:59;;;;;;;23.80;7.38;;;;;;;;;;4991049;28;20092;-36
2022/04/10 21:58:26;;;;;;;29.60;8.68;;;;;;;;;;4991019;28;20034;-36
2022/04/10 22:00:53;;;;;;;24.35;9.95;;;;;;;;;;4991270;28;20665;-36
2022/04/10 22:03:20;;;;;;;29.13;9.50;;;;;;;;;;4991344;28;20034;-36
2022/04/10 22:05:48;;;;;;;26.88;8.10;;;;;;;;;;4991295;28;20495;-36
2022/04/10 22:08:34;;;;;;;19.02;7.88;;;;;;;;;;4991026;28;20039;-36
2022/04/10 22:11:02;;;;;;;24.60;7.50;;;;;;;;;;4991811;28;20027;-36
2022/04/10 22:13:29;;;;;;;19.73;7.15;;;;;;;;;;4991353;28;20026;-36
2022/04/10 22:15:56;;;;;;;18.85;7.57;;;;;;;;;;4990729;28;20034;-36
2022/04/10 22:18:23;;;;;;;12.70;5.88;;;;;;;;;;4991577;28;20030;-36
2022/04/10 22:20:50;;;;;;;17.88;6.22;;;;;;;;;;4991399;28;20124;-36
2022/04/10 22:23:19;;;;;;;11.82;4.95;;;;;;;;;;4990643;28;20065;-36
2022/04/10 22:25:46;;;;;;;13.48;5.25;;;;;;;;;;4990811;28;20045;-36
2022/04/10 22:28:13;;;;;;;12.38;4.90;;;;;;;;;;4990623;28;20073;-36
2022/04/10 22:30:40;;;;;;;12.13;5.40;;;;;;;;;;4990967;28;20535;-36
2022/04/10 22:33:07;;;;;;;15.02;4.43;;;;;;;;;;4994182;28;20661;-36
2022/04/10 22:35:34;;;;;;;10.95;4.85;;;;;;;;;;4993501;28;20073;-36
2022/04/10 22:38:01;;;;;;;14.80;4.55;;;;;;;;;;4993937;28;20101;-36
2022/04/10 22:40:28;;;;;;;14.52;5.28;;;;;;;;;;4994129;28;20022;-36
2022/04/10 22:42:55;;;;;;;10.38;3.90;;;;;;;;;;4994142;28;20029;-36
2022/04/10 22:45:22;;;;;;;11.60;4.60;;;;;;;;;;4993879;28;20030;-35
2022/04/10 22:47:49;;;;;;;14.32;4.65;;;;;;;;;;4993046;28;20102;-36
2022/04/10 22:50:17;;;;;;;15.52;4.65;;;;;;;;;;4994363;28;20465;-36
2022/04/10 22:52:44;;;;;;;11.63;4.50;;;;;;;;;;4990221;28;20036;-36
2022/04/10 22:55:11;;;;;;;8.95;4.15;;;;;;;;;;4993428;28;20037;-35
2022/04/10 22:57:38;;;;;;;10.93;3.28;;;;;;;;;;4993763;28;20544;-36
2022/04/10 23:00:07;;;;;;;49.30;6.10;;;;;;;;;;4993222;28;20283;-35
2022/04/10 23:02:34;;;;;;;10.90;3.53;;;;;;;;;;4994007;28;20088;-36
2022/04/10 23:05:01;;;;;;;9.50;3.85;;;;;;;;;;4993821;28;20076;-36
2022/04/10 23:07:30;;;;;;;16.13;4.20;;;;;;;;;;4994102;28;20058;-36
2022/04/10 23:09:58;;;;;;;11.93;3.67;;;;;;;;;;4993657;28;20389;-36
2022/04/10 23:12:25;;;;;;;8.98;3.95;;;;;;;;;;4994627;28;20026;-37
2022/04/10 23:14:52;;;;;;;10.60;3.30;;;;;;;;;;4993031;28;20034;-36
2022/04/10 23:17:19;;;;;;;5.53;2.20;;;;;;;;;;4994580;28;20806;-36
2022/04/10 23:19:46;;;;;;;6.00;3.00;;;;;;;;;;4992960;28;20034;-36
2022/04/10 23:22:13;;;;;;;8.45;3.35;;;;;;;;;;4992885;28;20073;-37
2022/04/10 23:24:40;;;;;;;6.82;3.10;;;;;;;;;;4993498;28;20113;-36
2022/04/10 23:27:07;;;;;;;6.18;3.33;;;;;;;;;;4993179;28;20429;-36
2022/04/10 23:29:34;;;;;;;4.95;2.90;;;;;;;;;;4989449;28;20053;-36
2022/04/10 23:32:01;;;;;;;6.60;3.03;;;;;;;;;;4993098;28;20109;-36
2022/04/10 23:34:28;;;;;;;9.65;3.05;;;;;;;;;;4991971;28;20039;-36
2022/04/10 23:36:55;;;;;;;15.95;2.60;;;;;;;;;;4988256;28;20193;-36
2022/04/10 23:39:22;;;;;;;12.05;3.42;;;;;;;;;;4991609;28;20042;-36
2022/04/10 23:41:49;;;;;;;11.77;2.88;;;;;;;;;;4991487;28;20722;-36
2022/04/10 23:44:16;;;;;;;10.32;2.70;;;;;;;;;;4991686;28;20029;-36
2022/04/10 23:47:03;;;;;;;16.00;5.57;;;;;;;;;;4989994;28;20574;-36
2022/04/10 23:49:30;;;;;;;23.65;11.40;;;;;;;;;;4991456;28;20476;-36
2022/04/10 23:51:57;;;;;;;29.67;13.63;;;;;;;;;;4991639;28;20058;-35
2022/04/10 23:54:44;;;;;;;44.03;21.88;;;;;;;;;;4991402;28;20504;-36
2022/04/10 23:57:11;;;;;;;47.90;25.10;;;;;;;;;;4993090;28;20074;-37
2022/04/10 23:59:38;;;;;;;42.80;22.60;;;;;;;;;;4991956;28;20069;-36
